Time;durP1;ratioP1;P1;durP2;ratioP2;P2;SDS_P1;SDS_P2;PMS_P1;PMS_P2;Temp;Humidity;BMP_temperature;BMP_pressure;BME280_temperature;BME280_humidity;BME280_pressure;Samples;Min_cycle;Max_cycle;Signal;HPM_P1;HPM_P2
2021/12/25 00:00:18;;;;;;;0.40;0.40;;;;;;;-8.08;95.80;100234.25;4979051;28;20789;-83
2021/12/25 00:02:46;;;;;;;2.47;0.63;;;;;;;-8.09;95.72;100237.63;4978933;28;20296;-84
2021/12/25 00:05:14;;;;;;;1.07;0.40;;;;;;;-8.14;95.05;100234.00;4973361;28;20384;-82
2021/12/25 00:07:40;;;;;;;1.17;0.57;;;;;;;-8.16;95.65;100240.72;4978703;28;21454;-83
2021/12/25 00:10:08;;;;;;;0.67;0.30;;;;;;;-8.20;95.23;100238.81;4961150;28;20296;-84
2021/12/25 00:12:35;;;;;;;1.17;0.50;;;;;;;-8.28;96.14;100241.03;4963449;28;20359;-82
2021/12/25 00:15:03;;;;;;;2.23;0.57;;;;;;;-8.33;95.80;100239.03;4967511;28;20288;-85
2021/12/25 00:17:32;;;;;;;1.07;0.60;;;;;;;-8.40;96.14;100247.28;4972725;28;20298;-84
2021/12/25 00:19:58;;;;;;;1.20;0.50;;;;;;;-8.47;96.45;100242.69;4954825;28;20295;-84
2021/12/25 00:22:28;;;;;;;0.70;0.50;;;;;;;-8.52;97.03;100250.13;5012370;23;20333;-78
2021/12/25 00:24:56;;;;;;;0.93;0.50;;;;;;;-8.45;96.49;100251.31;4979199;28;20309;-78
2021/12/25 00:30:08;;;;;;;1.10;0.50;;;;;;;-8.56;96.32;100254.22;4975219;28;20289;-78
2021/12/25 00:32:53;;;;;;;0.77;0.53;;;;;;;-8.69;96.24;100256.97;4946195;28;20329;-79
2021/12/25 00:35:20;;;;;;;0.57;0.40;;;;;;;-8.68;96.79;100262.97;4941399;28;20297;-78
2021/12/25 00:37:47;;;;;;;2.20;0.53;;;;;;;-8.75;96.45;100268.59;4945454;28;20297;-78
2021/12/25 00:40:13;;;;;;;0.93;0.60;;;;;;;-8.78;96.24;100269.31;4975761;28;20297;-78
2021/12/25 00:42:40;;;;;;;0.67;0.53;;;;;;;-8.76;96.35;100275.38;4960189;28;20653;-78
2021/12/25 00:45:07;;;;;;;0.97;0.60;;;;;;;-8.89;96.79;100276.47;4958121;28;20301;-78
2021/12/25 00:47:34;;;;;;;0.83;0.50;;;;;;;-8.84;96.21;100276.69;4960905;28;20289;-78
2021/12/25 00:50:01;;;;;;;1.13;0.60;;;;;;;-8.87;95.77;100281.66;4974841;28;20856;-78
2021/12/25 00:52:27;;;;;;;1.10;0.73;;;;;;;-8.95;95.85;100288.94;4956240;28;20285;-78
2021/12/25 00:54:54;;;;;;;2.23;1.10;;;;;;;-8.97;96.27;100288.00;4941319;28;20344;-80
2021/12/25 00:57:20;;;;;;;1.70;1.33;;;;;;;-9.01;95.88;100295.44;4941705;28;20285;-78
2021/12/25 00:59:47;;;;;;;3.23;1.43;;;;;;;-9.07;96.89;100293.47;4940370;28;20290;-78
2021/12/25 01:02:14;;;;;;;1.97;0.90;;;;;;;-9.07;96.67;100298.56;4974707;28;20289;-78
2021/12/25 01:04:41;;;;;;;2.40;1.10;;;;;;;-9.09;96.72;100295.03;4957952;28;20289;-77
2021/12/25 01:07:07;;;;;;;2.60;1.00;;;;;;;-9.16;96.75;100295.53;4943864;28;20300;-78
2021/12/25 01:09:34;;;;;;;2.43;1.10;;;;;;;-9.15;97.09;100303.28;4958569;28;20347;-78
2021/12/25 01:12:01;;;;;;;1.97;1.23;;;;;;;-9.20;96.16;100319.19;4961259;28;20297;-78
2021/12/25 01:14:38;;;;;;;3.00;1.40;;;;;;;-9.25;97.18;100315.50;4955437;28;20660;-81
2021/12/25 01:20:11;;;;;;;4.53;1.83;;;;;;;-9.22;96.33;100316.56;4959741;28;20328;-78
2021/12/25 01:28:44;;;;;;;3.13;1.23;;;;;;;-9.37;96.85;100331.09;4983873;28;20293;-78
2021/12/25 01:36:47;;;;;;;2.60;1.20;;;;;;;-9.49;96.04;100351.78;4945732;28;20293;-78
2021/12/25 01:39:22;;;;;;;2.00;1.33;;;;;;;-9.50;96.38;100350.03;4948805;28;20325;-78
2021/12/25 01:42:04;;;;;;;3.23;1.20;;;;;;;-9.49;94.98;100348.34;4952935;28;20297;-78
2021/12/25 01:50:05;;;;;;;3.27;1.57;;;;;;;-9.60;95.12;100354.53;4976001;28;20321;-78
2021/12/25 01:52:32;;;;;;;3.83;1.40;;;;;;;-9.54;95.05;100360.00;4957868;28;21238;-77
2021/12/25 01:55:02;;;;;;;2.80;1.33;;;;;;;-9.57;94.66;100363.28;4938974;28;20332;-79
2021/12/25 01:57:30;;;;;;;2.93;1.23;;;;;;;-9.58;94.75;100364.06;4977441;28;20304;-78
2021/12/25 01:59:57;;;;;;;3.03;0.80;;;;;;;-9.58;95.24;100370.84;4942319;28;20297;-78
2021/12/25 02:02:25;;;;;;;1.57;0.90;;;;;;;-9.59;95.12;100374.19;4973299;28;20293;-77
2021/12/25 02:04:52;;;;;;;1.97;0.93;;;;;;;-9.63;95.20;100379.94;4954150;28;20301;-78
2021/12/25 02:07:20;;;;;;;1.67;1.00;;;;;;;-9.59;94.67;100376.75;4937202;28;20293;-78
2021/12/25 02:09:46;;;;;;;0.93;0.77;;;;;;;-9.78;94.42;100375.72;4971952;28;20296;-78
2021/12/25 02:12:15;;;;;;;1.57;0.83;;;;;;;-9.78;95.18;100385.97;4940637;28;20349;-78
2021/12/25 02:14:44;;;;;;;2.13;0.73;;;;;;;-9.82;95.79;100384.03;4942074;28;20324;-77
2021/12/25 02:17:27;;;;;;;1.57;0.80;;;;;;;-9.92;95.75;100389.41;4940658;28;20344;-78
2021/12/25 02:20:17;;;;;;;2.17;0.80;;;;;;;-9.95;96.43;100394.34;4939518;28;20778;-78
2021/12/25 02:22:46;;;;;;;2.07;1.23;;;;;;;-10.00;97.30;100394.13;4958900;28;20301;-78
2021/12/25 02:25:12;;;;;;;1.17;0.80;;;;;;;-9.92;97.59;100394.53;4957299;28;20376;-78
2021/12/25 02:27:39;;;;;;;1.00;0.60;;;;;;;-9.97;96.78;100411.28;4959009;28;20355;-78
2021/12/25 02:30:10;;;;;;;2.30;0.87;;;;;;;-10.00;95.49;100393.25;4957637;28;20926;-78
2021/12/25 02:32:37;;;;;;;3.17;0.97;;;;;;;-10.08;96.43;100404.69;4974816;28;20344;-78
2021/12/25 02:35:04;;;;;;;1.13;0.70;;;;;;;-10.09;96.69;100406.34;4957718;28;20363;-79
2021/12/25 02:37:30;;;;;;;3.47;1.10;;;;;;;-10.14;95.34;100410.31;4960025;28;20293;-78
2021/12/25 02:39:57;;;;;;;1.63;0.87;;;;;;;-10.15;95.73;100415.34;4975900;28;20368;-78
2021/12/25 02:42:26;;;;;;;1.30;0.90;;;;;;;-10.18;96.02;100413.47;4942949;28;20305;-78
2021/12/25 02:44:53;;;;;;;3.03;1.50;;;;;;;-10.18;96.85;100422.81;4955966;28;20289;-78
2021/12/25 02:47:21;;;;;;;3.93;1.53;;;;;;;-10.21;96.71;100421.84;4942234;28;20402;-78
2021/12/25 02:49:49;;;;;;;3.00;1.33;;;;;;;-10.19;96.77;100421.06;4979062;28;20360;-78
2021/12/25 02:52:16;;;;;;;2.47;1.30;;;;;;;-10.10;96.43;100421.59;4959500;28;20754;-79
2021/12/25 02:54:43;;;;;;;1.73;0.87;;;;;;;-10.18;95.56;100425.38;4975901;28;20293;-77
2021/12/25 02:57:11;;;;;;;1.43;0.80;;;;;;;-10.26;95.64;100422.41;4962167;28;20344;-78
2021/12/25 02:59:38;;;;;;;1.50;0.80;;;;;;;-10.27;95.43;100425.75;4976125;28;20285;-78
2021/12/25 03:02:14;;;;;;;0.80;0.63;;;;;;;-10.31;94.83;100426.38;4945681;28;20293;-78
2021/12/25 03:04:43;;;;;;;2.30;0.93;;;;;;;-10.36;94.69;100430.31;4976973;28;20718;-78
2021/12/25 03:07:10;;;;;;;1.87;0.80;;;;;;;-10.45;95.87;100430.66;4980627;28;20301;-78
2021/12/25 03:09:38;;;;;;;1.23;0.77;;;;;;;-10.48;95.61;100437.28;4941618;28;20309;-79
2021/12/25 03:12:07;;;;;;;2.50;0.93;;;;;;;-10.52;96.30;100447.28;4949677;28;20290;-78
2021/12/25 03:14:49;;;;;;;1.23;0.60;;;;;;;-10.52;96.23;100447.28;4935270;28;20324;-79
2021/12/25 03:17:16;;;;;;;3.53;0.80;;;;;;;-10.42;94.51;100446.19;4960617;28;20325;-78
2021/12/25 03:19:43;;;;;;;1.80;0.70;;;;;;;-10.49;94.05;100449.16;4969660;28;20299;-78
2021/12/25 03:22:10;;;;;;;1.43;0.80;;;;;;;-10.54;94.30;100455.66;4944963;28;20360;-79
2021/12/25 03:24:36;;;;;;;1.63;1.00;;;;;;;-10.48;94.29;100447.50;4967373;28;20994;-79
2021/12/25 03:27:03;;;;;;;0.73;0.70;;;;;;;-10.60;94.41;100450.16;4957138;28;20305;-78
2021/12/25 03:29:35;;;;;;;1.00;0.60;;;;;;;-10.57;94.52;100452.94;4951320;28;20307;-79
2021/12/25 03:32:01;;;;;;;0.60;0.60;;;;;;;-10.46;94.54;100443.34;4954165;28;20297;-78
2021/12/25 03:34:28;;;;;;;1.50;0.90;;;;;;;-10.62;94.73;100454.31;4973961;28;20376;-79
2021/12/25 03:36:55;;;;;;;0.83;0.50;;;;;;;-10.65;95.07;100457.56;4954822;28;20348;-79
2021/12/25 03:39:21;;;;;;;0.73;0.57;;;;;;;-10.69;95.55;100459.81;4953543;28;20787;-78
2021/12/25 03:41:48;;;;;;;1.33;0.60;;;;;;;-10.65;95.21;100464.34;4942833;28;20320;-79
2021/12/25 03:44:15;;;;;;;1.30;0.70;;;;;;;-10.63;94.03;100465.31;4977987;28;20880;-79
2021/12/25 03:46:42;;;;;;;0.60;0.50;;;;;;;-10.64;93.84;100468.66;4958146;28;20648;-78
2021/12/25 03:49:27;;;;;;;1.67;0.80;;;;;;;-10.58;94.27;100474.16;4939838;28;20283;-79
2021/12/25 03:57:44;;;;;;;1.33;0.70;;;;;;;-10.68;94.99;100472.69;4965853;28;20872;-78
2021/12/25 04:00:14;;;;;;;0.67;0.60;;;;;;;-10.83;95.32;100472.66;4942314;28;20300;-79
2021/12/25 04:02:53;;;;;;;1.17;0.70;;;;;;;-10.92;95.91;100477.19;4958473;28;20301;-79
2021/12/25 04:05:25;;;;;;;1.20;0.60;;;;;;;-10.95;95.70;100489.75;4948034;28;20293;-78
2021/12/25 04:10:27;;;;;;;1.80;0.73;;;;;;;-10.96;96.46;100487.97;4981038;28;20817;-76
2021/12/25 04:12:55;;;;;;;1.30;0.60;;;;;;;-10.94;96.12;100483.84;4957998;28;20293;-78
2021/12/25 04:15:22;;;;;;;0.90;0.57;;;;;;;-10.95;95.27;100482.09;4968212;28;20289;-80
2021/12/25 04:17:48;;;;;;;0.70;0.47;;;;;;;-10.96;94.54;100482.88;4957410;28;20325;-78
2021/12/25 04:20:17;;;;;;;0.80;0.50;;;;;;;-10.99;93.73;100482.69;4942150;28;20289;-79
2021/12/25 04:22:49;;;;;;;0.60;0.47;;;;;;;-11.03;93.53;100483.28;4959433;28;20352;-79
2021/12/25 04:25:22;;;;;;;1.20;0.70;;;;;;;-11.06;93.62;100490.75;4944762;28;20721;-79
2021/12/25 04:27:49;;;;;;;1.43;0.77;;;;;;;-11.07;93.65;100491.53;4944646;28;20293;-79
2021/12/25 04:30:30;;;;;;;0.70;0.60;;;;;;;-11.11;93.33;100487.91;4966107;28;20293;-78
2021/12/25 04:49:59;;;;;;;1.10;0.47;;;;;;;-11.31;95.51;100502.75;4993396;28;20297;-78
2021/12/25 05:01:46;;;;;;;0.70;0.40;;;;;;;-11.36;94.58;100499.91;4977674;28;20292;-79
2021/12/25 05:03:57;;;;;;;1.43;0.60;;;;;;;-11.36;93.76;100512.63;4977445;28;20374;-79
2021/12/25 05:06:24;;;;;;;1.00;0.50;;;;;;;-11.34;92.78;100517.88;4967694;28;20682;-79
2021/12/25 05:08:53;;;;;;;0.90;0.60;;;;;;;-11.40;93.04;100506.47;4956072;28;20310;-79
2021/12/25 05:11:22;;;;;;;1.83;0.60;;;;;;;-11.40;92.59;100518.34;4951692;28;20296;-78
2021/12/25 05:13:52;;;;;;;0.87;0.67;;;;;;;-11.46;92.97;100502.66;4942928;28;20359;-78
2021/12/25 05:16:19;;;;;;;1.27;0.67;;;;;;;-11.50;93.55;100514.31;4960669;28;20818;-79
2021/12/25 05:18:47;;;;;;;0.83;0.80;;;;;;;-11.49;93.85;100513.53;4975768;28;22178;-78
2021/12/25 05:21:16;;;;;;;1.50;1.10;;;;;;;-11.55;93.93;100513.13;4951764;28;20304;-79
2021/12/25 05:23:46;;;;;;;0.50;0.50;;;;;;;-11.54;93.23;100514.91;4954054;28;20313;-79
2021/12/25 05:26:16;;;;;;;1.17;0.73;;;;;;;-11.64;93.59;100510.00;4953991;28;20325;-79
2021/12/25 05:28:57;;;;;;;1.50;0.60;;;;;;;-11.66;93.90;100519.22;4970208;28;20327;-79
2021/12/25 05:31:30;;;;;;;1.47;0.70;;;;;;;-11.66;93.91;100524.31;4986577;28;20297;-78
2021/12/25 05:33:59;;;;;;;2.00;0.90;;;;;;;-11.68;93.15;100533.53;4968786;28;20289;-79
2021/12/25 05:36:28;;;;;;;2.83;1.50;;;;;;;-11.66;93.15;100535.38;4952851;28;20061;-78
2021/12/25 05:38:59;;;;;;;2.97;1.77;;;;;;;-11.69;93.18;100542.81;4948586;28;20297;-79
2021/12/25 05:41:31;;;;;;;2.63;2.10;;;;;;;-11.72;93.15;100541.75;4959693;28;20348;-79
2021/12/25 05:44:01;;;;;;;3.10;1.42;;;;;;;-11.78;93.10;100543.88;4955481;28;20301;-79
2021/12/25 05:46:33;;;;;;;2.70;1.30;;;;;;;-11.74;92.95;100543.31;4969001;28;20049;-79
2021/12/25 05:49:08;;;;;;;2.80;1.50;;;;;;;-11.79;93.37;100542.09;4961030;28;20309;-79
2021/12/25 05:51:57;;;;;;;4.60;1.77;;;;;;;-11.82;94.40;100544.50;4961134;28;20360;-79
2021/12/25 05:55:05;;;;;;;2.93;1.87;;;;;;;-11.84;93.85;100551.16;4989190;28;20352;-79
2021/12/25 05:57:45;;;;;;;3.47;1.70;;;;;;;-11.84;93.58;100554.59;4985764;28;20294;-79
2021/12/25 06:00:32;;;;;;;2.63;1.80;;;;;;;-11.90;93.96;100545.66;4987458;28;20489;-79
2021/12/25 06:03:03;;;;;;;2.53;1.40;;;;;;;-11.84;93.34;100553.72;4972841;28;20305;-79
2021/12/25 06:05:31;;;;;;;1.90;1.20;;;;;;;-11.83;92.38;100553.81;4966396;28;20285;-79
2021/12/25 06:07:58;;;;;;;2.90;1.30;;;;;;;-11.91;92.48;100551.53;4981193;28;20404;-79
2021/12/25 06:10:25;;;;;;;1.90;1.17;;;;;;;-11.90;92.81;100561.81;4947413;28;20297;-79
2021/12/25 06:12:58;;;;;;;2.57;2.20;;;;;;;-11.90;92.22;100558.41;4975436;28;20285;-79
2021/12/25 06:15:28;;;;;;;3.50;1.90;;;;;;;-11.98;91.85;100563.84;4972425;28;20301;-79
2021/12/25 06:18:00;;;;;;;3.30;1.83;;;;;;;-11.99;92.29;100568.84;4985799;28;20610;-79
2021/12/25 06:20:27;;;;;;;3.17;2.10;;;;;;;-12.01;92.53;100562.78;4964143;28;20893;-79
2021/12/25 06:22:54;;;;;;;3.33;2.10;;;;;;;-12.01;92.32;100560.22;4967073;28;20305;-80
2021/12/25 06:25:21;;;;;;;4.53;2.67;;;;;;;-12.00;92.07;100577.28;4932477;28;20356;-80
2021/12/25 06:27:48;;;;;;;6.10;3.37;;;;;;;-12.03;91.99;100565.19;4959892;28;20814;-80
2021/12/25 06:30:14;;;;;;;4.13;2.80;;;;;;;-12.15;93.05;100561.84;4941186;28;20876;-80
2021/12/25 06:32:41;;;;;;;4.67;2.63;;;;;;;-12.16;93.42;100561.75;4955089;28;20301;-80
2021/12/25 06:35:08;;;;;;;4.87;3.40;;;;;;;-12.15;93.94;100564.38;4982321;28;20290;-78
2021/12/25 06:37:36;;;;;;;2.37;2.10;;;;;;;-12.14;93.76;100573.78;4957903;28;20807;-79
2021/12/25 06:40:03;;;;;;;3.10;1.80;;;;;;;-12.11;92.56;100578.19;4955349;28;20294;-78
2021/12/25 06:42:31;;;;;;;4.30;1.70;;;;;;;-12.16;91.95;100584.66;4941773;28;20315;-80
2021/12/25 06:44:58;;;;;;;2.80;1.90;;;;;;;-12.23;92.31;100588.44;4958079;28;20352;-80
2021/12/25 06:47:25;;;;;;;4.33;2.40;;;;;;;-12.19;92.31;100584.44;4952601;28;20297;-80
2021/12/25 06:49:52;;;;;;;3.87;2.33;;;;;;;-12.26;91.92;100589.13;4962882;28;20329;-80
2021/12/25 06:52:18;;;;;;;4.43;2.73;;;;;;;-12.31;92.85;100595.53;4946469;28;20294;-79
2021/12/25 06:54:45;;;;;;;4.70;2.63;;;;;;;-12.21;91.62;100604.69;4977174;28;20293;-79
2021/12/25 06:57:13;;;;;;;3.90;2.47;;;;;;;-12.23;91.34;100596.06;4960111;28;20311;-79
2021/12/25 06:59:42;;;;;;;4.37;2.57;;;;;;;-12.26;91.89;100595.88;4946290;28;20317;-80
2021/12/25 07:02:09;;;;;;;4.00;2.47;;;;;;;-12.36;92.55;100599.44;4961059;28;20320;-80
2021/12/25 07:04:37;;;;;;;4.07;2.87;;;;;;;-12.39;93.50;100590.72;4958447;28;20332;-79
2021/12/25 07:07:04;;;;;;;4.13;2.20;;;;;;;-12.32;93.25;100595.44;4967674;28;20310;-79
2021/12/25 07:09:31;;;;;;;7.53;3.37;;;;;;;-12.29;92.66;100603.28;4945101;28;20364;-79
2021/12/25 07:11:58;;;;;;;6.13;3.33;;;;;;;-12.32;92.09;100598.00;4937906;28;21086;-79
2021/12/25 07:14:25;;;;;;;5.07;2.50;;;;;;;-12.34;92.06;100604.66;4963571;28;20293;-79
2021/12/25 07:16:52;;;;;;;3.13;1.93;;;;;;;-12.37;92.77;100600.22;4966275;28;20801;-79
2021/12/25 07:19:19;;;;;;;3.53;2.53;;;;;;;-12.37;92.69;100604.41;4977144;28;20299;-79
2021/12/25 07:21:46;;;;;;;4.73;2.50;;;;;;;-12.39;92.80;100596.69;4947636;28;20332;-78
2021/12/25 07:24:14;;;;;;;4.40;2.37;;;;;;;-12.40;93.23;100599.13;4959252;28;20330;-79
2021/12/25 07:26:42;;;;;;;5.07;1.97;;;;;;;-12.40;92.88;100600.00;4958539;28;20340;-79
2021/12/25 07:29:09;;;;;;;2.50;1.70;;;;;;;-12.40;92.75;100594.03;4942459;28;20329;-79
2021/12/25 07:31:36;;;;;;;2.87;1.90;;;;;;;-12.35;92.32;100602.88;4945144;28;20812;-79
2021/12/25 07:34:04;;;;;;;3.73;1.97;;;;;;;-12.36;92.20;100601.97;4951036;28;20305;-79
2021/12/25 07:36:31;;;;;;;1.97;1.43;;;;;;;-12.30;92.20;100601.53;4944499;28;20802;-78
2021/12/25 07:38:57;;;;;;;4.13;2.03;;;;;;;-12.35;93.04;100610.53;4944462;28;20297;-79
2021/12/25 07:41:25;;;;;;;2.83;1.83;;;;;;;-12.41;93.80;100598.25;4955723;28;20750;-79
2021/12/25 07:43:52;;;;;;;3.57;2.00;;;;;;;-12.39;94.89;100603.44;4961254;28;20355;-78
2021/12/25 07:46:19;;;;;;;3.17;2.60;;;;;;;-12.36;95.26;100607.06;4959738;28;20806;-78
2021/12/25 07:48:47;;;;;;;3.70;3.10;;;;;;;-12.30;96.10;100604.06;4943931;28;20305;-79
2021/12/25 07:51:14;;;;;;;6.60;3.23;;;;;;;-12.27;96.15;100606.84;4963807;28;20360;-78
2021/12/25 07:53:43;;;;;;;7.13;4.37;;;;;;;-12.26;95.95;100611.16;4974765;28;20718;-79
2021/12/25 07:56:11;;;;;;;13.47;6.73;;;;;;;-12.23;96.57;100604.59;4941296;28;20305;-79
2021/12/25 07:58:40;;;;;;;16.03;7.67;;;;;;;-12.22;96.08;100615.66;4943762;28;20305;-79
2021/12/25 08:01:07;;;;;;;13.73;7.60;;;;;;;-12.21;96.15;100607.25;4942339;28;20360;-78
2021/12/25 08:03:37;;;;;;;15.47;7.43;;;;;;;-12.19;96.49;100615.88;4944446;28;20297;-78
2021/12/25 08:06:04;;;;;;;15.40;7.40;;;;;;;-12.10;96.59;100616.53;4962976;28;20294;-78
2021/12/25 08:08:31;;;;;;;14.43;6.87;;;;;;;-12.10;96.94;100616.53;4946310;28;20950;-79
2021/12/25 08:10:58;;;;;;;15.27;6.00;;;;;;;-12.08;96.81;100614.06;4960933;28;20336;-78
2021/12/25 08:13:27;;;;;;;11.70;5.70;;;;;;;-12.07;97.17;100626.91;4961868;28;20301;-78
2021/12/25 08:15:57;;;;;;;7.10;4.77;;;;;;;-11.94;96.85;100623.50;4964119;28;20817;-78
2021/12/25 08:18:25;;;;;;;9.97;4.50;;;;;;;-11.92;95.72;100629.63;4946551;28;20289;-79
2021/12/25 08:20:53;;;;;;;11.23;4.23;;;;;;;-11.94;95.78;100631.16;4954990;28;20814;-78
2021/12/25 08:23:20;;;;;;;8.23;4.60;;;;;;;-11.92;96.82;100632.16;4943927;28;20320;-78
2021/12/25 08:25:47;;;;;;;6.73;3.43;;;;;;;-11.86;97.23;100640.19;4960850;28;20360;-78
2021/12/25 08:28:14;;;;;;;3.97;2.60;;;;;;;-11.82;97.65;100648.94;4939138;28;20321;-78
2021/12/25 08:30:42;;;;;;;3.50;1.90;;;;;;;-11.78;98.20;100649.22;4957527;28;20304;-79
2021/12/25 08:33:08;;;;;;;3.00;1.50;;;;;;;-11.68;99.04;100655.84;4958300;28;20356;-80
2021/12/25 08:35:35;;;;;;;4.53;2.00;;;;;;;-11.53;98.65;100658.50;4966306;28;20297;-79
2021/12/25 08:38:02;;;;;;;6.47;3.57;;;;;;;-11.47;97.07;100664.03;4961652;28;20293;-79
2021/12/25 08:40:29;;;;;;;9.13;5.60;;;;;;;-11.53;97.72;100661.94;4957081;28;20304;-77
2021/12/25 08:43:01;;;;;;;8.57;5.03;;;;;;;-11.56;98.18;100656.66;4943028;28;20707;-79
2021/12/25 08:48:15;;;;;;;7.50;4.30;;;;;;;-11.48;99.03;100662.25;4962821;28;20825;-80
2021/12/25 08:50:45;;;;;;;5.67;3.23;;;;;;;-11.44;99.89;100661.66;4966478;28;20297;-79
2021/12/25 08:53:14;;;;;;;5.20;2.67;;;;;;;-11.36;100.00;100670.72;4944892;28;20289;-77
2021/12/25 08:55:42;;;;;;;2.47;2.00;;;;;;;-11.27;100.00;100678.09;4944694;28;20301;-77
2021/12/25 08:58:09;;;;;;;4.63;2.00;;;;;;;-11.18;100.00;100686.34;4945770;28;20304;-80
2021/12/25 09:00:36;;;;;;;3.40;1.80;;;;;;;-11.10;100.00;100682.63;4958678;28;20289;-80
2021/12/25 09:03:03;;;;;;;3.60;2.07;;;;;;;-10.95;100.00;100687.84;4948747;28;20321;-79
2021/12/25 09:05:32;;;;;;;4.10;2.57;;;;;;;-10.92;100.00;100682.97;4944795;28;20289;-78
2021/12/25 09:08:00;;;;;;;7.77;3.07;;;;;;;-10.88;100.00;100679.81;4959796;28;20308;-81
2021/12/25 09:10:28;;;;;;;4.10;2.60;;;;;;;-10.81;100.00;100682.88;4960822;28;20293;-79
2021/12/25 09:12:56;;;;;;;4.43;2.30;;;;;;;-10.73;100.00;100673.16;4945641;28;20293;-79
2021/12/25 09:15:24;;;;;;;7.10;3.37;;;;;;;-10.61;100.00;100671.38;4950656;28;20299;-80
2021/12/25 09:17:52;;;;;;;7.13;3.20;;;;;;;-10.46;100.00;100662.94;4959037;28;20735;-79
2021/12/25 09:20:21;;;;;;;6.63;3.30;;;;;;;-10.33;100.00;100668.03;4960477;28;20285;-79
2021/12/25 09:22:48;;;;;;;4.60;3.00;;;;;;;-10.24;100.00;100682.25;4938736;28;20305;-80
2021/12/25 09:25:15;;;;;;;4.67;3.13;;;;;;;-10.14;100.00;100680.22;4942513;28;20302;-80
2021/12/25 09:27:42;;;;;;;12.80;4.60;;;;;;;-10.02;100.00;100680.97;4976863;28;20655;-79
2021/12/25 09:30:10;;;;;;;11.13;4.80;;;;;;;-9.99;100.00;100676.06;4955767;28;20289;-80
2021/12/25 09:32:37;;;;;;;9.67;3.97;;;;;;;-9.93;100.00;100678.97;4976562;28;20293;-79
2021/12/25 09:35:04;;;;;;;6.60;3.13;;;;;;;-9.86;100.00;100686.22;4958087;28;20333;-79
2021/12/25 09:37:30;;;;;;;6.47;3.40;;;;;;;-9.70;100.00;100696.59;4965851;28;20340;-79
2021/12/25 09:39:57;;;;;;;8.20;4.10;;;;;;;-9.68;100.00;100689.03;4948638;28;20384;-79
2021/12/25 09:42:25;;;;;;;5.57;3.17;;;;;;;-9.62;100.00;100685.97;4959412;28;20301;-79
2021/12/25 09:44:52;;;;;;;8.33;3.67;;;;;;;-9.54;100.00;100694.97;4951028;28;20302;-79
2021/12/25 09:47:20;;;;;;;8.07;4.27;;;;;;;-9.49;100.00;100691.03;4957427;28;20293;-80
2021/12/25 09:49:47;;;;;;;5.53;3.50;;;;;;;-9.42;100.00;100682.91;4958843;28;20320;-79
2021/12/25 09:52:13;;;;;;;7.60;4.90;;;;;;;-9.26;100.00;100679.56;4967945;28;20301;-80
2021/12/25 09:54:40;;;;;;;6.77;4.23;;;;;;;-9.21;100.00;100686.72;4944103;28;20833;-79
2021/12/25 09:57:07;;;;;;;8.50;4.40;;;;;;;-9.22;100.00;100687.53;4974921;28;20293;-79
2021/12/25 09:59:34;;;;;;;22.40;10.37;;;;;;;-9.12;100.00;100697.50;4956757;28;20773;-80
2021/12/25 10:02:01;;;;;;;25.50;11.70;;;;;;;-9.07;100.00;100692.66;4944402;28;20293;-79
2021/12/25 10:04:35;;;;;;;21.77;9.53;;;;;;;-8.93;100.00;100696.00;4972612;28;20662;-80
2021/12/25 10:07:13;;;;;;;52.55;15.68;;;;;;;-8.94;100.00;100686.56;4971741;28;20818;-80
2021/12/25 10:09:40;;;;;;;25.20;10.10;;;;;;;-8.87;100.00;100681.88;4949709;28;20066;-80
2021/12/25 10:12:12;;;;;;;110.17;32.27;;;;;;;-8.81;100.00;100679.69;4960842;28;20481;-78
2021/12/25 10:14:42;;;;;;;72.83;28.17;;;;;;;-8.68;100.00;100678.69;4940790;28;20302;-80
2021/12/25 10:17:13;;;;;;;71.10;27.17;;;;;;;-8.55;100.00;100686.28;4972545;28;20294;-80
2021/12/25 10:19:41;;;;;;;19.80;8.83;;;;;;;-8.43;100.00;100692.84;4970988;28;21081;-80
2021/12/25 10:22:10;;;;;;;9.47;4.50;;;;;;;-8.35;100.00;100678.78;4958388;28;20644;-80
2021/12/25 10:24:48;;;;;;;14.20;6.77;;;;;;;-8.26;100.00;100676.69;4958459;28;20293;-80
2021/12/25 10:27:19;;;;;;;17.27;7.63;;;;;;;-8.11;100.00;100674.09;4959717;28;20297;-80
2021/12/25 10:29:47;;;;;;;10.60;5.83;;;;;;;-7.97;100.00;100676.59;4965744;28;20305;-80
2021/12/25 10:32:20;;;;;;;6.60;3.40;;;;;;;-7.88;100.00;100663.41;4942198;28;20368;-81
2021/12/25 10:34:48;;;;;;;4.65;2.15;;;;;;;-7.71;100.00;100670.28;4957002;28;21122;-79
2021/12/25 10:37:17;;;;;;;9.23;3.87;;;;;;;-7.57;100.00;100673.56;4943142;28;20038;-81
2021/12/25 10:39:47;;;;;;;3.80;2.50;;;;;;;-7.50;100.00;100673.06;4958384;28;20404;-81
2021/12/25 10:42:20;;;;;;;5.33;3.00;;;;;;;-7.42;100.00;100673.47;4937323;28;20294;-80
2021/12/25 10:44:51;;;;;;;6.83;3.10;;;;;;;-7.35;100.00;100661.84;4941806;28;20300;-79
2021/12/25 10:47:21;;;;;;;5.97;3.43;;;;;;;-7.25;100.00;100670.06;4942387;28;20587;-79
2021/12/25 10:49:50;;;;;;;3.90;2.10;;;;;;;-7.10;100.00;100672.53;4973660;28;20289;-80
2021/12/25 10:52:25;;;;;;;5.33;2.57;;;;;;;-6.87;100.00;100676.25;4948511;28;20035;-79
2021/12/25 10:54:55;;;;;;;4.57;2.60;;;;;;;-6.73;100.00;100670.09;4954843;28;20507;-80
2021/12/25 10:57:39;;;;;;;5.87;3.03;;;;;;;-6.43;100.00;100668.13;4973514;28;20043;-81
2021/12/25 11:00:10;;;;;;;4.78;2.80;;;;;;;-6.25;100.00;100679.28;4956572;28;20544;-79
2021/12/25 11:02:49;;;;;;;5.60;3.00;;;;;;;-6.03;100.00;100676.00;4984355;28;20038;-80
2021/12/25 11:05:21;;;;;;;5.17;2.60;;;;;;;-5.75;100.00;100670.38;4936934;28;20049;-80
2021/12/25 11:08:01;;;;;;;3.43;2.87;;;;;;;-5.49;100.00;100675.81;4961484;28;20663;-81
2021/12/25 11:10:30;;;;;;;6.23;2.47;;;;;;;-5.30;100.00;100673.22;4959434;28;20491;-80
2021/12/25 11:12:57;;;;;;;5.33;2.50;;;;;;;-5.05;100.00;100669.97;4960686;28;20069;-80
2021/12/25 11:15:30;;;;;;;6.20;3.20;;;;;;;-4.80;100.00;100669.31;4942813;28;20049;-80
2021/12/25 11:18:06;;;;;;;4.57;2.63;;;;;;;-4.55;100.00;100671.19;4957444;28;20062;-81
2021/12/25 11:20:36;;;;;;;4.13;2.30;;;;;;;-4.38;99.21;100671.84;4939847;28;20134;-79
2021/12/25 11:23:06;;;;;;;5.20;2.63;;;;;;;-4.20;99.88;100664.88;4982283;28;20046;-80
2021/12/25 11:25:34;;;;;;;5.40;2.40;;;;;;;-4.03;99.11;100670.69;4956715;28;20074;-80
2021/12/25 11:28:06;;;;;;;5.83;2.40;;;;;;;-3.90;97.62;100661.69;4943213;28;20047;-80
2021/12/25 11:30:36;;;;;;;6.27;3.20;;;;;;;-3.69;92.61;100653.03;4955680;28;20043;-80
2021/12/25 11:33:03;;;;;;;6.00;2.90;;;;;;;-3.66;94.63;100653.97;4935016;28;20055;-80
2021/12/25 11:35:33;;;;;;;7.17;3.47;;;;;;;-3.60;94.69;100652.50;4973002;28;20074;-79
2021/12/25 11:38:02;;;;;;;6.13;4.10;;;;;;;-3.47;94.35;100658.97;4954600;28;20042;-80
2021/12/25 11:40:33;;;;;;;8.67;5.30;;;;;;;-3.41;93.71;100651.44;4954162;28;20124;-80
2021/12/25 11:43:03;;;;;;;9.17;4.83;;;;;;;-3.37;92.20;100661.03;4951704;28;20097;-80
2021/12/25 11:45:40;;;;;;;5.37;2.43;;;;;;;-3.39;90.61;100665.28;4943768;28;20043;-80
2021/12/25 11:48:19;;;;;;;2.57;1.90;;;;;;;-3.48;91.79;100660.66;4942943;28;20050;-78
2021/12/25 11:50:49;;;;;;;3.47;1.80;;;;;;;-3.52;91.01;100653.66;4962641;23;20039;-83
2021/12/25 11:53:40;;;;;;;6.40;2.87;;;;;;;-3.53;91.62;100669.06;4968491;28;20042;-82
2021/12/25 11:56:27;;;;;;;8.53;2.53;;;;;;;-3.61;92.00;100661.06;4958695;28;20049;-81
2021/12/25 11:58:59;;;;;;;4.50;2.50;;;;;;;-3.65;92.31;100666.03;4977229;28;20055;-81
2021/12/25 12:01:34;;;;;;;8.67;5.20;;;;;;;-3.71;92.84;100661.53;4939704;28;20050;-78
2021/12/25 12:04:12;;;;;;;6.77;3.50;;;;;;;-3.82;93.10;100684.38;4967544;28;20567;-81
2021/12/25 12:06:45;;;;;;;4.47;2.37;;;;;;;-3.87;93.97;100672.09;4960788;28;20042;-84
2021/12/25 12:09:16;;;;;;;6.37;2.20;;;;;;;-3.89;92.78;100678.91;4953973;28;20113;-84
2021/12/25 12:12:02;;;;;;;3.33;2.47;;;;;;;-4.02;93.47;100668.16;4940908;28;20038;-81
2021/12/25 12:14:30;;;;;;;3.57;2.10;;;;;;;-3.97;92.67;100671.75;4977710;28;20050;-81
2021/12/25 12:16:58;;;;;;;3.13;1.80;;;;;;;-4.03;91.44;100679.28;4938131;28;20072;-83
2021/12/25 12:19:32;;;;;;;4.97;1.90;;;;;;;-4.05;91.82;100680.91;4930152;28;20039;-83
2021/12/25 12:22:01;;;;;;;5.13;2.45;;;;;;;-4.07;91.30;100674.81;4966129;28;20062;-83
2021/12/25 12:27:02;;;;;;;;;;;;;;;-4.11;93.75;100677.25;4938125;28;20046;-82
2021/12/25 12:29:38;;;;;;;3.80;1.90;;;;;;;-4.14;93.38;100670.25;4933800;28;19933;-83
2021/12/25 12:32:07;;;;;;;3.00;1.60;;;;;;;-4.15;92.84;100668.47;4938005;28;20126;-83